Time;durP1;ratioP1;P1;durP2;ratioP2;P2;SDS_P1;SDS_P2;PMS_P1;PMS_P2;Temp;Humidity;BMP_temperature;BMP_pressure;BME280_temperature;BME280_humidity;BME280_pressure;Samples;Min_cycle;Max_cycle;Signal;HPM_P1;HPM_P2
2022/09/10 00:01:27;;;;;;;8.10;6.28;;;;;;;11.24;59.40;100952.25;5032845;28;20044;-69
2022/09/10 00:03:53;;;;;;;9.23;7.22;;;;;;;11.33;59.31;100956.25;5026200;28;20409;-70
2022/09/10 00:06:26;;;;;;;10.55;7.43;;;;;;;11.30;59.39;100951.16;5030195;28;20067;-69
2022/09/10 00:08:56;;;;;;;9.30;6.97;;;;;;;11.44;59.16;100951.41;5029530;28;20127;-70
2022/09/10 00:11:21;;;;;;;10.05;7.75;;;;;;;11.33;59.32;100946.66;5028517;28;20029;-70
2022/09/10 00:13:48;;;;;;;10.88;7.13;;;;;;;11.39;59.26;100946.38;5024713;28;20037;-70
2022/09/10 00:16:17;;;;;;;7.85;6.50;;;;;;;11.48;58.77;100945.13;5028449;28;20512;-70
2022/09/10 00:18:44;;;;;;;12.73;7.75;;;;;;;11.44;58.79;100944.44;5026434;28;20603;-70
2022/09/10 00:21:12;;;;;;;9.00;6.72;;;;;;;11.43;58.93;100945.34;5028348;28;20097;-70
2022/09/10 00:23:38;;;;;;;12.98;7.72;;;;;;;11.37;58.91;100945.59;5027460;28;20041;-70
2022/09/10 00:26:10;;;;;;;7.82;6.85;;;;;;;11.40;58.99;100944.63;5030031;28;22874;-70
2022/09/10 00:28:36;;;;;;;8.88;6.65;;;;;;;11.37;58.94;100948.19;5025803;28;20072;-70
2022/09/10 00:31:02;;;;;;;10.13;7.20;;;;;;;11.35;58.87;100950.06;5027487;28;20040;-69
2022/09/10 00:33:28;;;;;;;8.20;6.00;;;;;;;11.51;58.72;100947.63;5043092;28;20045;-70
2022/09/10 00:35:56;;;;;;;10.00;6.60;;;;;;;11.48;58.71;100941.69;5009447;28;20088;-71
2022/09/10 00:38:22;;;;;;;9.35;7.53;;;;;;;11.44;58.42;100949.66;5054624;28;20045;-69
2022/09/10 00:40:48;;;;;;;9.40;6.97;;;;;;;11.38;58.50;100947.31;5027694;28;20040;-69
2022/09/10 00:43:18;;;;;;;9.93;6.78;;;;;;;11.32;58.77;100947.56;5024542;28;20041;-68
2022/09/10 00:45:50;;;;;;;9.60;7.22;;;;;;;11.33;58.66;100948.41;5025324;28;20026;-69
2022/09/10 00:48:18;;;;;;;;;;;;;;;11.31;58.99;100952.84;5043169;28;20199;-69
2022/09/10 00:50:46;;;;;;;12.00;7.65;;;;;;;11.31;58.95;100948.47;5028989;28;19917;-70
2022/09/10 00:53:16;;;;;;;9.45;7.32;;;;;;;11.31;59.25;100958.94;5028087;28;20194;-70
2022/09/10 00:55:46;;;;;;;11.30;8.07;;;;;;;11.30;59.11;100952.00;5030496;28;20067;-70
2022/09/10 00:58:14;;;;;;;11.07;7.90;;;;;;;11.34;59.17;100958.81;5027619;28;20041;-70
2022/09/10 01:00:40;;;;;;;9.02;6.95;;;;;;;11.38;59.14;100960.38;5041544;28;20033;-69
2022/09/10 01:03:10;;;;;;;10.65;7.97;;;;;;;11.41;58.91;100964.63;5024619;28;20038;-68
2022/09/10 01:05:37;;;;;;;9.48;7.68;;;;;;;11.46;59.00;100953.06;5025567;28;20037;-68
2022/09/10 01:08:03;;;;;;;10.48;7.50;;;;;;;11.48;58.72;100960.00;5058193;28;20215;-69
2022/09/10 01:10:36;;;;;;;13.23;8.50;;;;;;;11.45;58.97;100953.97;5023604;28;20021;-69
2022/09/10 01:13:24;;;;;;;15.13;8.85;;;;;;;11.46;59.11;100962.66;5035277;28;20033;-70
2022/09/10 01:15:52;;;;;;;9.63;7.53;;;;;;;11.55;58.95;100950.97;5027109;28;22875;-70
2022/09/10 01:18:40;;;;;;;11.25;8.30;;;;;;;11.54;58.68;100954.50;5026186;28;20054;-71
2022/09/10 01:21:24;;;;;;;13.40;8.40;;;;;;;11.67;58.91;100960.91;5030116;28;20029;-70
2022/09/10 01:24:02;;;;;;;10.05;6.70;;;;;;;11.68;58.61;100963.44;5033966;28;20539;-71
2022/09/10 01:26:30;;;;;;;9.75;7.60;;;;;;;11.68;58.53;100957.38;5026086;28;20073;-72
2022/09/10 01:29:11;;;;;;;11.68;7.50;;;;;;;11.70;58.58;100959.94;5026792;28;20122;-71
2022/09/10 01:31:46;;;;;;;14.48;8.07;;;;;;;11.69;58.47;100953.84;5024598;28;20044;-71
2022/09/10 01:34:41;;;;;;;13.20;9.05;;;;;;;11.64;58.78;100969.75;5026785;28;20120;-71
2022/09/10 01:37:16;;;;;;;12.70;9.45;;;;;;;11.62;58.80;100963.75;4993077;28;20049;-72
2022/09/10 01:39:44;;;;;;;13.05;7.45;;;;;;;11.63;58.58;100969.81;5041748;28;20025;-67
2022/09/10 01:42:10;;;;;;;13.15;7.63;;;;;;;11.63;58.54;100977.66;5060302;28;20072;-68
2022/09/10 01:44:42;;;;;;;9.80;8.00;;;;;;;11.66;58.91;100967.94;5036698;28;20382;-70
2022/09/10 01:47:32;;;;;;;10.88;8.77;;;;;;;11.65;58.77;100965.38;5016226;28;20037;-72
2022/09/10 01:50:20;;;;;;;13.23;8.55;;;;;;;11.61;58.94;100958.56;5028124;28;20129;-72
2022/09/10 01:52:56;;;;;;;14.35;8.77;;;;;;;11.60;58.97;100970.81;5027278;28;20112;-72
2022/09/10 01:55:59;;;;;;;13.60;8.63;;;;;;;11.58;59.11;100963.94;5029212;28;20107;-73
2022/09/10 01:58:36;;;;;;;13.20;9.23;;;;;;;11.57;58.94;100970.06;5026964;28;20041;-73
2022/09/10 02:01:19;;;;;;;11.30;7.50;;;;;;;11.55;59.12;100971.91;5031265;28;20056;-72
2022/09/10 02:03:51;;;;;;;10.05;7.55;;;;;;;11.52;59.05;100974.66;5027764;28;20558;-67
2022/09/10 02:06:21;;;;;;;15.00;9.73;;;;;;;11.57;59.40;100975.31;5023515;28;20218;-67
2022/09/10 02:08:52;;;;;;;15.05;11.00;;;;;;;11.55;58.92;100977.97;5031592;28;20139;-67
2022/09/10 02:11:18;;;;;;;13.32;9.57;;;;;;;11.57;58.98;100981.38;5026874;28;20048;-69
2022/09/10 02:13:47;;;;;;;14.63;9.43;;;;;;;11.53;59.22;100969.38;5046976;28;20509;-69
2022/09/10 02:16:33;;;;;;;13.35;9.32;;;;;;;11.56;59.17;100973.63;5033142;28;20037;-67
2022/09/10 02:19:00;;;;;;;15.38;9.55;;;;;;;11.58;59.02;100972.63;5032958;28;20072;-70
2022/09/10 02:21:26;;;;;;;15.10;10.13;;;;;;;11.59;59.19;100979.56;5023862;28;20038;-68
2022/09/10 02:24:04;;;;;;;15.38;10.40;;;;;;;11.56;59.38;100979.69;4981870;28;20110;-71
2022/09/10 02:26:34;;;;;;;16.10;9.35;;;;;;;11.58;59.44;100983.09;5005138;28;20054;-68
2022/09/10 02:29:02;;;;;;;14.55;9.00;;;;;;;11.62;59.49;100989.03;5033299;28;20033;-68
2022/09/10 02:31:28;;;;;;;14.48;9.07;;;;;;;11.70;59.37;100981.72;5025597;28;20040;-69
2022/09/10 02:33:54;;;;;;;16.42;10.20;;;;;;;11.68;59.20;100988.78;5025005;28;20510;-70
2022/09/10 02:36:24;;;;;;;15.82;9.05;;;;;;;11.70;59.09;100976.47;5028979;28;20040;-68
2022/09/10 02:38:55;;;;;;;13.13;9.68;;;;;;;11.69;58.96;100982.66;5028621;28;20036;-68
2022/09/10 02:41:25;;;;;;;14.70;9.70;;;;;;;11.79;58.78;100981.34;5026973;28;20049;-68
2022/09/10 02:43:52;;;;;;;11.48;8.43;;;;;;;11.88;58.92;100985.34;5056655;28;21556;-67
2022/09/10 02:46:18;;;;;;;14.93;9.95;;;;;;;11.82;58.94;100985.59;5017393;28;20533;-67
2022/09/10 02:48:43;;;;;;;15.45;8.82;;;;;;;11.85;58.69;100990.72;5022090;28;20069;-67
2022/09/10 02:51:09;;;;;;;14.27;8.82;;;;;;;11.80;59.00;100988.31;5024731;28;20065;-70
2022/09/10 02:53:37;;;;;;;14.00;9.65;;;;;;;11.79;59.09;100989.22;5024099;28;20045;-68
2022/09/10 02:56:06;;;;;;;14.65;9.20;;;;;;;11.79;59.10;100986.59;5025797;28;20033;-69
2022/09/10 02:58:32;;;;;;;10.68;8.30;;;;;;;11.79;59.08;100983.97;5028851;28;20144;-68
2022/09/10 03:01:11;;;;;;;11.90;9.05;;;;;;;11.79;58.97;100981.34;5033720;28;20025;-67
2022/09/10 03:03:40;;;;;;;14.18;8.77;;;;;;;11.81;58.66;100978.69;5025639;28;20293;-68
2022/09/10 03:06:07;;;;;;;13.68;9.35;;;;;;;11.81;58.95;100984.75;5058615;28;20065;-68
2022/09/10 03:08:35;;;;;;;14.35;10.20;;;;;;;11.83;59.14;100985.53;5030640;28;20138;-70
2022/09/10 03:11:00;;;;;;;13.77;9.45;;;;;;;11.81;58.98;100978.69;5026781;28;20445;-69
2022/09/10 03:13:27;;;;;;;15.82;10.05;;;;;;;11.76;58.98;100978.00;5027726;28;20040;-68
2022/09/10 03:15:57;;;;;;;20.38;10.65;;;;;;;11.87;58.86;100979.25;5032226;28;20475;-69
2022/09/10 03:18:23;;;;;;;11.95;10.02;;;;;;;11.91;58.72;100976.50;5025850;28;20040;-67
2022/09/10 03:20:50;;;;;;;15.10;9.70;;;;;;;11.91;59.04;100972.13;5031168;28;20024;-67
2022/09/10 03:23:16;;;;;;;14.45;9.77;;;;;;;11.97;59.14;100979.69;5027394;28;20052;-68
2022/09/10 03:25:45;;;;;;;17.27;9.13;;;;;;;12.04;58.95;100975.03;5030584;28;20041;-68
2022/09/10 03:28:12;;;;;;;15.00;9.85;;;;;;;12.06;58.87;100968.81;5030122;28;20040;-68
2022/09/10 03:30:39;;;;;;;19.50;10.68;;;;;;;12.02;58.68;100971.63;5025414;28;20198;-68
2022/09/10 03:33:06;;;;;;;14.57;10.68;;;;;;;12.02;58.78;100979.50;5029027;28;20040;-68
2022/09/10 03:35:33;;;;;;;14.07;9.25;;;;;;;12.02;58.89;100979.50;5029623;28;20144;-68
2022/09/10 03:38:01;;;;;;;14.10;9.48;;;;;;;11.99;58.97;100983.09;5027550;28;20168;-68
2022/09/10 03:40:29;;;;;;;17.25;9.15;;;;;;;12.05;58.89;100985.44;5029272;28;20583;-72
2022/09/10 03:42:55;;;;;;;14.70;10.35;;;;;;;12.10;59.03;100974.78;5028175;28;20461;-73
2022/09/10 03:45:24;;;;;;;13.38;9.85;;;;;;;12.21;58.57;100983.00;5026437;28;20037;-74
2022/09/10 03:47:50;;;;;;;15.00;10.52;;;;;;;12.23;58.57;100975.91;5030068;28;20067;-69
2022/09/10 03:50:18;;;;;;;15.80;9.95;;;;;;;12.23;58.76;100975.06;5028277;28;20087;-69
2022/09/10 03:52:44;;;;;;;15.45;11.25;;;;;;;12.18;58.76;100967.41;5028086;28;20047;-69
2022/09/10 03:55:09;;;;;;;14.75;9.82;;;;;;;12.16;58.57;100969.25;5026846;28;20084;-69
2022/09/10 03:57:35;;;;;;;12.77;9.50;;;;;;;12.19;58.73;100976.97;5030037;28;20513;-68
2022/09/10 04:00:00;;;;;;;16.90;9.25;;;;;;;12.18;58.95;100977.91;5030083;28;20072;-68
2022/09/10 04:02:28;;;;;;;13.93;10.38;;;;;;;12.17;58.87;100981.44;5027561;28;20045;-69
2022/09/10 04:04:54;;;;;;;19.33;10.10;;;;;;;12.13;58.79;100972.00;5030218;28;20425;-70
2022/09/10 04:07:21;;;;;;;17.50;10.52;;;;;;;12.11;58.70;100975.63;5043432;28;20045;-70
2022/09/10 04:09:48;;;;;;;13.75;9.18;;;;;;;12.13;58.96;100974.63;5027983;28;20025;-68
2022/09/10 04:12:15;;;;;;;17.15;10.80;;;;;;;12.06;58.93;100970.56;5028072;28;20207;-69
2022/09/10 04:14:44;;;;;;;16.65;11.27;;;;;;;12.09;58.98;100975.69;5042811;28;20035;-69
2022/09/10 04:17:12;;;;;;;18.85;9.55;;;;;;;12.10;58.65;100974.78;5061584;28;20127;-69
2022/09/10 04:19:40;;;;;;;14.93;9.98;;;;;;;12.11;58.69;100976.47;5026173;28;20662;-69
2022/09/10 04:22:06;;;;;;;13.75;10.48;;;;;;;12.14;58.80;100980.72;5029366;28;20046;-68
2022/09/10 04:24:32;;;;;;;12.18;9.10;;;;;;;12.17;58.73;100986.66;5027142;28;20044;-69
2022/09/10 04:26:58;;;;;;;16.95;10.23;;;;;;;12.16;58.70;100986.75;5027501;28;20513;-68
2022/09/10 04:29:24;;;;;;;19.50;11.38;;;;;;;12.05;58.78;100974.13;5029348;28;20021;-69
2022/09/10 04:31:51;;;;;;;17.02;10.65;;;;;;;12.00;58.58;100989.19;5026542;28;20017;-69
2022/09/10 04:34:18;;;;;;;15.88;11.07;;;;;;;11.94;59.01;100989.47;5041316;28;20215;-69
2022/09/10 04:36:43;;;;;;;14.98;10.18;;;;;;;11.98;58.81;100985.81;5035872;28;20244;-69
2022/09/10 04:39:09;;;;;;;14.70;10.15;;;;;;;12.06;58.67;100988.91;5037123;28;20409;-68
2022/09/10 04:41:35;;;;;;;13.73;9.18;;;;;;;12.05;58.74;100988.06;5017464;28;20025;-68
2022/09/10 04:44:01;;;;;;;15.27;9.40;;;;;;;12.07;58.70;100995.88;5028998;28;20417;-67
2022/09/10 04:46:26;;;;;;;17.77;10.18;;;;;;;11.97;58.88;100991.94;5027825;28;20040;-70
2022/09/10 04:48:56;;;;;;;17.27;9.80;;;;;;;11.96;58.85;100993.72;5028723;28;20040;-71
2022/09/10 04:51:25;;;;;;;18.30;11.57;;;;;;;11.88;59.17;100991.41;5011984;28;20033;-71
2022/09/10 04:53:56;;;;;;;16.13;10.88;;;;;;;11.88;59.07;101001.91;5027137;28;20059;-72
2022/09/10 04:56:27;;;;;;;15.10;10.55;;;;;;;11.90;59.15;100998.38;5028621;28;20532;-70
2022/09/10 04:58:53;;;;;;;15.40;10.40;;;;;;;11.91;58.97;101008.81;5024765;28;20045;-70
2022/09/10 05:01:21;;;;;;;19.67;12.15;;;;;;;11.97;59.28;101012.91;5029013;28;20029;-70
2022/09/10 05:03:50;;;;;;;18.77;10.90;;;;;;;12.03;59.36;101012.63;5027668;28;20644;-71
2022/09/10 05:06:17;;;;;;;21.33;11.20;;;;;;;12.06;59.04;101010.72;5028777;28;20056;-69
2022/09/10 05:08:45;;;;;;;18.25;10.70;;;;;;;12.08;59.32;101013.28;5029353;28;20041;-71
2022/09/10 05:11:18;;;;;;;15.95;9.93;;;;;;;12.17;59.21;101015.50;5027512;28;20059;-69
2022/09/10 05:13:45;;;;;;;18.33;11.55;;;;;;;12.16;59.14;101013.81;5033091;28;20497;-73
2022/09/10 05:16:13;;;;;;;19.75;10.50;;;;;;;12.22;59.11;101015.28;5035576;28;20037;-70
2022/09/10 05:18:39;;;;;;;17.13;11.45;;;;;;;12.31;59.02;101008.78;5021218;28;20033;-70
2022/09/10 05:21:06;;;;;;;17.02;10.20;;;;;;;12.36;59.12;101017.31;5025559;28;20548;-70
2022/09/10 05:23:32;;;;;;;20.33;11.50;;;;;;;12.39;58.81;101015.38;5026038;28;20505;-71
2022/09/10 05:25:59;;;;;;;18.90;12.25;;;;;;;12.38;58.79;101010.19;5035262;28;20456;-70
2022/09/10 05:28:28;;;;;;;14.52;10.23;;;;;;;12.40;58.83;101013.59;5057701;28;20076;-72
2022/09/10 05:30:53;;;;;;;18.98;11.48;;;;;;;12.38;58.87;101018.94;5025551;28;20156;-69
2022/09/10 05:33:22;;;;;;;15.85;10.77;;;;;;;12.39;58.91;101022.41;5023682;28;20121;-71
2022/09/10 05:35:51;;;;;;;18.40;11.35;;;;;;;12.41;58.81;101031.03;5009423;28;20039;-72
2022/09/10 05:38:17;;;;;;;15.15;10.43;;;;;;;12.39;58.88;101028.47;5027395;28;20135;-70
2022/09/10 05:40:43;;;;;;;17.13;11.18;;;;;;;12.43;58.71;101031.84;5009605;28;20022;-70
2022/09/10 05:43:10;;;;;;;15.45;9.85;;;;;;;12.50;58.76;101031.47;5028809;28;20423;-69
2022/09/10 05:45:36;;;;;;;15.35;10.32;;;;;;;12.50;58.92;101034.09;5012177;28;20348;-71
2022/09/10 05:48:06;;;;;;;17.15;11.18;;;;;;;12.52;58.63;101038.44;5007467;28;20057;-69
2022/09/10 05:50:34;;;;;;;15.02;10.00;;;;;;;12.63;58.56;101037.00;5005985;28;20025;-70
2022/09/10 05:53:02;;;;;;;15.43;10.73;;;;;;;12.66;58.69;101036.84;4997368;28;20042;-70
2022/09/10 05:55:32;;;;;;;20.23;9.95;;;;;;;12.62;58.38;101045.78;5015881;28;20091;-69
2022/09/10 05:57:58;;;;;;;19.17;11.35;;;;;;;12.59;58.52;101048.56;5014715;28;20089;-69
2022/09/10 06:00:24;;;;;;;15.18;10.20;;;;;;;12.74;58.48;101048.81;5059617;28;20052;-70
2022/09/10 06:02:58;;;;;;;17.52;10.95;;;;;;;12.79;58.57;101046.81;5043872;28;20049;-68
2022/09/10 06:05:32;;;;;;;17.15;10.55;;;;;;;12.98;58.58;101050.28;5022857;28;20616;-71
2022/09/10 06:08:00;;;;;;;17.80;11.35;;;;;;;13.07;58.25;101049.84;5018600;28;20052;-68
2022/09/10 06:10:26;;;;;;;27.10;12.65;;;;;;;13.17;58.00;101046.78;5031216;28;20025;-70
2022/09/10 06:12:52;;;;;;;18.38;11.77;;;;;;;13.33;58.42;101052.97;5025721;28;20533;-70
2022/09/10 06:15:19;;;;;;;21.48;11.90;;;;;;;13.45;58.12;101049.75;5013772;28;20458;-69
2022/09/10 06:17:45;;;;;;;18.92;11.70;;;;;;;13.46;57.79;101053.22;5004928;28;20041;-72
2022/09/10 06:20:12;;;;;;;17.80;10.88;;;;;;;13.44;57.83;101053.28;5023264;28;20034;-71
2022/09/10 06:22:39;;;;;;;19.90;12.02;;;;;;;13.56;57.65;101064.13;5059409;28;20048;-71
2022/09/10 06:25:06;;;;;;;19.20;13.10;;;;;;;13.61;57.58;101064.78;5035693;28;20025;-68
2022/09/10 06:27:33;;;;;;;20.50;11.48;;;;;;;13.76;57.01;101061.38;5019064;28;20047;-70
2022/09/10 06:30:00;;;;;;;19.50;12.55;;;;;;;13.74;56.94;101063.22;5007211;28;20030;-70
2022/09/10 06:32:26;;;;;;;16.45;12.27;;;;;;;13.82;56.99;101071.56;5004916;28;20517;-70
2022/09/10 06:34:52;;;;;;;17.35;11.18;;;;;;;13.78;56.70;101075.28;5008462;28;20030;-70
2022/09/10 06:37:19;;;;;;;18.33;12.02;;;;;;;13.71;56.68;101076.53;5006813;28;20514;-68
2022/09/10 06:39:45;;;;;;;18.95;11.73;;;;;;;13.75;56.95;101085.13;5003910;28;20045;-71
2022/09/10 06:42:10;;;;;;;17.50;10.95;;;;;;;13.78;57.15;101085.78;5005258;28;20052;-71
2022/09/10 06:45:03;;;;;;;17.35;12.05;;;;;;;13.85;57.15;101084.56;5004506;28;20515;-68
2022/09/10 06:47:51;;;;;;;16.55;11.82;;;;;;;13.92;57.26;101087.75;5010281;28;20037;-68
2022/09/10 06:50:19;;;;;;;18.80;12.15;;;;;;;13.93;56.41;101090.28;5025741;28;20036;-71
2022/09/10 06:52:44;;;;;;;22.65;12.93;;;;;;;13.80;56.66;101099.69;5025674;28;20032;-69
2022/09/10 06:55:12;;;;;;;18.77;13.32;;;;;;;13.83;56.79;101088.19;5031435;28;20037;-70
2022/09/10 06:57:43;;;;;;;18.85;12.02;;;;;;;13.96;56.97;101094.53;5028384;28;20048;-71
2022/09/10 07:00:11;;;;;;;17.60;12.07;;;;;;;14.12;57.07;101089.31;5032792;28;20619;-71
2022/09/10 07:02:39;;;;;;;21.77;13.05;;;;;;;13.97;56.69;101098.03;5030557;28;20374;-73
2022/09/10 07:05:05;;;;;;;27.05;13.77;;;;;;;14.03;56.85;101101.19;5031022;28;20063;-70
2022/09/10 07:07:33;;;;;;;18.08;12.13;;;;;;;14.24;56.16;101098.38;5027954;28;20065;-70
2022/09/10 07:10:00;;;;;;;23.02;12.25;;;;;;;14.33;56.19;101104.00;5030262;28;20163;-68
2022/09/10 07:12:26;;;;;;;18.90;12.27;;;;;;;14.41;56.39;101108.03;5009736;28;20081;-68
2022/09/10 07:14:52;;;;;;;19.48;12.90;;;;;;;14.28;55.94;101103.41;5009364;28;20037;-69
2022/09/10 07:17:19;;;;;;;16.48;11.07;;;;;;;14.26;56.34;101102.63;5018696;28;20044;-68
2022/09/10 07:19:45;;;;;;;34.35;12.93;;;;;;;14.46;56.59;101112.13;5045076;28;20123;-70
2022/09/10 07:22:19;;;;;;;22.05;14.18;;;;;;;14.44;56.20;101111.34;5029179;28;20037;-70
2022/09/10 07:24:49;;;;;;;19.42;11.80;;;;;;;14.64;56.49;101122.63;5010660;28;20214;-70
2022/09/10 07:27:25;;;;;;;20.38;13.40;;;;;;;14.59;55.77;101114.97;5018321;28;20045;-69
2022/09/10 07:29:51;;;;;;;24.23;12.70;;;;;;;14.68;55.45;101117.09;5036111;28;20106;-69
2022/09/10 07:32:19;;;;;;;19.63;13.10;;;;;;;14.72;55.83;101115.13;5029686;28;20037;-69
2022/09/10 07:34:47;;;;;;;17.33;11.90;;;;;;;14.58;55.45;101113.25;5061387;28;20041;-71
2022/09/10 07:37:16;;;;;;;16.67;11.75;;;;;;;14.83;55.62;101122.47;5029514;28;20037;-69
2022/09/10 07:39:44;;;;;;;17.60;11.70;;;;;;;14.64;54.66;101112.94;5034145;28;20040;-70
2022/09/10 07:42:11;;;;;;;21.90;12.93;;;;;;;14.42;54.96;101115.84;5010660;28;20052;-68
2022/09/10 07:44:36;;;;;;;18.65;12.30;;;;;;;14.46;55.37;101120.03;5042228;28;20041;-70
2022/09/10 07:47:02;;;;;;;17.75;12.48;;;;;;;14.55;55.98;101123.94;5027499;28;20148;-70
2022/09/10 07:49:29;;;;;;;22.40;11.68;;;;;;;14.63;55.33;101126.16;5040927;28;20032;-69
2022/09/10 07:51:54;;;;;;;20.33;12.43;;;;;;;14.62;55.35;101130.56;5037251;28;20545;-69
2022/09/10 07:54:21;;;;;;;21.20;12.18;;;;;;;14.58;55.25;101138.72;5037752;28;20047;-72
2022/09/10 07:56:53;;;;;;;18.17;12.13;;;;;;;14.54;55.47;101132.75;5046295;28;20448;-69
2022/09/10 07:59:19;;;;;;;27.17;12.57;;;;;;;14.65;55.74;101138.28;5023303;28;20062;-69
2022/09/10 08:01:48;;;;;;;20.45;12.25;;;;;;;14.66;55.67;101142.63;5029333;28;20029;-71
2022/09/10 08:04:16;;;;;;;19.42;11.93;;;;;;;14.72;55.28;101142.31;5028471;28;20030;-69
2022/09/10 08:06:41;;;;;;;19.02;12.48;;;;;;;14.65;55.01;101146.19;5018900;28;20031;-68
2022/09/10 08:09:08;;;;;;;26.00;12.40;;;;;;;14.64;54.88;101149.75;5021774;28;20477;-68
2022/09/10 08:11:39;;;;;;;17.13;10.85;;;;;;;14.70;54.97;101153.84;5028944;28;20131;-67
2022/09/10 08:14:05;;;;;;;18.27;11.68;;;;;;;14.86;54.84;101159.16;5027283;28;20025;-69
2022/09/10 08:16:32;;;;;;;23.63;12.23;;;;;;;14.96;54.51;101160.34;5030463;28;20033;-69
2022/09/10 08:19:04;;;;;;;20.35;12.70;;;;;;;14.90;54.15;101158.91;5028465;28;20398;-69
2022/09/10 08:21:31;;;;;;;21.17;12.40;;;;;;;14.98;53.45;101163.75;5032075;28;20025;-68
2022/09/10 08:23:58;;;;;;;18.63;11.77;;;;;;;15.00;53.56;101175.03;5028338;28;20037;-68
2022/09/10 08:26:26;;;;;;;21.40;12.55;;;;;;;14.98;53.23;101174.28;5029061;28;20031;-68
2022/09/10 08:28:55;;;;;;;24.77;12.50;;;;;;;14.99;53.68;101175.94;5033933;28;20390;-69
2022/09/10 08:31:23;;;;;;;18.60;11.80;;;;;;;15.23;54.64;101179.06;5030623;28;20034;-69
2022/09/10 08:33:55;;;;;;;22.65;12.45;;;;;;;15.30;52.97;101180.44;5029030;28;20109;-69
2022/09/10 08:36:23;;;;;;;21.20;12.80;;;;;;;15.25;52.50;101181.63;5027466;28;20029;-69
2022/09/10 08:38:50;;;;;;;21.45;11.60;;;;;;;15.31;53.22;101186.56;5029053;28;20075;-69
2022/09/10 08:41:24;;;;;;;19.17;12.30;;;;;;;15.46;52.47;101185.72;5019799;28;20661;-68
2022/09/10 08:43:55;;;;;;;20.67;12.68;;;;;;;15.42;52.01;101189.47;5030305;28;20076;-69
2022/09/10 08:46:32;;;;;;;25.63;12.73;;;;;;;15.41;52.15;101189.53;5030537;28;23378;-70
2022/09/10 08:49:10;;;;;;;23.40;12.38;;;;;;;15.45;51.81;101184.00;5021617;28;20133;-68
2022/09/10 08:52:09;;;;;;;18.70;11.57;;;;;;;15.70;51.97;101193.16;5007013;28;20095;-69
2022/09/10 08:54:53;;;;;;;20.80;11.85;;;;;;;15.85;51.74;101197.56;5033420;28;20037;-70
2022/09/10 08:57:46;;;;;;;22.63;13.25;;;;;;;15.70;51.14;101198.44;5059808;28;20398;-67
2022/09/10 09:00:19;;;;;;;19.58;10.88;;;;;;;16.06;51.36;101198.13;5022324;28;20062;-68
2022/09/10 09:03:02;;;;;;;22.42;12.50;;;;;;;16.28;50.13;101200.38;5024336;28;20118;-70
2022/09/10 09:05:45;;;;;;;21.48;11.95;;;;;;;16.32;49.89;101201.88;5027534;28;20049;-70
2022/09/10 09:08:20;;;;;;;21.70;11.15;;;;;;;16.48;49.90;101200.97;5038626;28;20045;-69
2022/09/10 09:10:53;;;;;;;18.33;11.82;;;;;;;16.80;49.98;101210.47;5023877;28;20060;-70
2022/09/10 09:13:27;;;;;;;17.20;10.83;;;;;;;17.22;48.00;101213.16;5013316;28;20060;-72
2022/09/10 09:16:11;;;;;;;18.90;10.13;;;;;;;17.60;47.44;101210.78;5019378;28;20052;-71
2022/09/10 09:19:04;;;;;;;20.15;11.93;;;;;;;17.85;46.84;101217.13;5001050;28;20513;-72
2022/09/10 09:21:40;;;;;;;18.67;10.43;;;;;;;17.87;46.66;101209.91;5000952;28;20048;-72
2022/09/10 09:24:21;;;;;;;20.98;10.52;;;;;;;18.08;46.35;101207.66;5024049;28;20382;-71
2022/09/10 09:26:55;;;;;;;22.00;11.98;;;;;;;18.32;45.31;101213.13;5021414;28;20033;-68
2022/09/10 09:29:27;;;;;;;18.45;9.75;;;;;;;18.54;46.45;101219.59;5014992;28;20482;-69
2022/09/10 09:32:01;;;;;;;14.60;8.98;;;;;;;18.69;45.60;101219.38;5007864;28;20034;-69
2022/09/10 09:34:35;;;;;;;18.25;11.60;;;;;;;18.52;44.67;101216.19;5014091;28;20049;-70
2022/09/10 09:37:10;;;;;;;22.35;11.15;;;;;;;18.37;45.98;101216.31;5013254;28;20042;-69
2022/09/10 09:39:51;;;;;;;18.35;9.77;;;;;;;18.16;45.09;101210.66;5010100;28;20096;-69
2022/09/10 09:42:29;;;;;;;14.48;10.43;;;;;;;18.06;45.58;101220.97;5007198;28;20129;-68
2022/09/10 09:45:01;;;;;;;17.88;11.00;;;;;;;17.96;45.58;101227.84;5011574;28;20563;-69
2022/09/10 09:47:26;;;;;;;21.25;12.07;;;;;;;18.02;44.23;101219.47;5011630;28;20037;-68
2022/09/10 09:49:53;;;;;;;16.85;10.40;;;;;;;17.58;45.73;101217.09;5003513;28;20041;-69
2022/09/10 09:52:24;;;;;;;23.55;15.20;;;;;;;17.56;45.79;101219.84;5007228;28;20045;-70
2022/09/10 09:55:01;;;;;;;16.17;11.07;;;;;;;17.58;45.99;101219.72;5005261;28;20095;-69
2022/09/10 09:57:28;;;;;;;18.13;10.98;;;;;;;17.31;46.25;101228.44;5004634;28;20045;-70
2022/09/10 09:59:54;;;;;;;20.75;11.00;;;;;;;17.44;46.36;101220.59;5003026;28;20116;-70
2022/09/10 10:02:22;;;;;;;19.38;11.57;;;;;;;17.61;46.53;101223.03;5004972;28;20110;-70
2022/09/10 10:05:07;;;;;;;19.58;11.57;;;;;;;17.42;46.91;101227.75;5003128;28;20069;-70
2022/09/10 10:07:35;;;;;;;17.48;9.43;;;;;;;17.52;46.85;101225.44;5003559;28;20073;-70
2022/09/10 10:10:04;;;;;;;16.30;10.25;;;;;;;17.70;46.67;101223.41;5004014;28;20037;-68
2022/09/10 10:12:30;;;;;;;17.17;10.65;;;;;;;17.66;45.27;101222.75;5003729;28;20142;-68
2022/09/10 10:14:58;;;;;;;15.18;10.25;;;;;;;17.77;45.24;101225.53;4995955;28;20553;-68
2022/09/10 10:17:36;;;;;;;17.75;10.45;;;;;;;17.74;46.07;101228.38;4988718;28;20049;-68
2022/09/10 10:20:12;;;;;;;17.58;10.02;;;;;;;18.01;46.44;101231.03;4989482;28;20445;-68
2022/09/10 10:22:47;;;;;;;19.00;11.30;;;;;;;18.12;44.67;101229.44;4986642;28;20478;-69
2022/09/10 10:25:41;;;;;;;17.95;10.75;;;;;;;18.37;44.56;101224.25;4988349;28;20139;-68
2022/09/10 10:28:20;;;;;;;16.83;9.18;;;;;;;18.57;44.60;101224.69;4998531;28;20129;-69
2022/09/10 10:30:55;;;;;;;14.10;9.85;;;;;;;18.71;44.13;101216.63;5011704;28;20366;-69
2022/09/10 10:33:27;;;;;;;18.05;10.05;;;;;;;18.52;43.90;101221.50;4999134;28;20037;-69
2022/09/10 10:36:01;;;;;;;12.52;8.02;;;;;;;18.37;45.10;101229.53;5013300;28;20039;-69
2022/09/10 10:38:28;;;;;;;12.57;9.15;;;;;;;18.15;44.85;101223.97;5010870;28;20037;-70
2022/09/10 10:41:21;;;;;;;19.02;10.40;;;;;;;18.16;44.84;101228.28;5012871;28;20063;-68
2022/09/10 10:44:02;;;;;;;15.98;8.98;;;;;;;17.93;45.47;101227.19;5002746;28;20595;-69
2022/09/10 10:46:39;;;;;;;9.88;7.85;;;;;;;17.94;45.72;101226.22;5003024;28;20026;-68
2022/09/10 10:49:08;;;;;;;17.00;9.45;;;;;;;17.70;45.80;101223.41;5012127;28;20068;-68
2022/09/10 10:51:36;;;;;;;10.77;8.25;;;;;;;17.84;46.60;101221.53;5008184;28;20033;-70
2022/09/10 10:54:21;;;;;;;14.32;8.65;;;;;;;17.74;45.00;101232.81;5012705;28;20041;-68
2022/09/10 10:57:23;;;;;;;13.90;8.68;;;;;;;17.79;45.87;101223.63;5018854;28;20048;-68
2022/09/10 10:59:59;;;;;;;10.15;7.68;;;;;;;18.13;45.38;101225.88;5035765;28;20037;-69
2022/09/10 11:03:07;;;;;;;9.00;6.68;;;;;;;18.47;44.55;101221.81;5024091;28;20036;-69
2022/09/10 11:05:37;;;;;;;13.60;8.57;;;;;;;19.08;43.65;101224.69;5016736;28;20104;-69
2022/09/10 11:08:07;;;;;;;10.60;7.28;;;;;;;19.35;40.92;101226.34;5016536;28;20036;-70
2022/09/10 11:10:43;;;;;;;11.35;7.05;;;;;;;19.61;42.12;101225.31;5015611;28;20024;-69
2022/09/10 11:13:18;;;;;;;11.77;6.35;;;;;;;19.73;40.31;101217.44;5010039;28;20413;-68
2022/09/10 11:15:58;;;;;;;13.10;8.13;;;;;;;19.74;40.83;101219.13;5024679;28;20061;-69
2022/09/10 11:18:29;;;;;;;13.57;8.43;;;;;;;19.70;42.67;101213.19;5013741;28;20041;-68
2022/09/10 11:21:37;;;;;;;15.45;8.40;;;;;;;20.39;40.14;101215.16;5009408;28;20460;-69
2022/09/10 11:24:15;;;;;;;11.05;7.03;;;;;;;21.00;38.82;101204.25;5007883;28;20164;-68
2022/09/10 11:27:06;;;;;;;11.68;6.65;;;;;;;21.59;38.53;101209.25;5009402;28;20025;-68
2022/09/10 11:29:41;;;;;;;11.90;6.65;;;;;;;21.80;37.47;101203.97;5012387;28;20526;-69
2022/09/10 11:32:12;;;;;;;10.38;6.65;;;;;;;21.73;36.93;101195.66;5008112;28;20036;-69